Terminal Aerodrome Forecast
Issued by NWS Atlanta, GA

Home | Current Version | Previous Version | Text Only | Print | Product List | Glossary On
Versions: 1 2 3 4 5 6 7 8 9 10 11 12 13 14 15 16 17 18 19 20
571
FTUS42 KFFC 301120
TAFMCN
TAF
KMCN 301120Z 3012/0112 15010KT P6SM BKN012
     FM301400 15010G17KT P6SM BKN025
     FM301600 16011G20KT P6SM SCT045
     FM010200 18009G17KT P6SM FEW050 BKN250
     FM010900 18010G18KT P6SM BKN018=

USA.gov is the U.S. government's official web portal to all federal, state and local government web resources and services.